Port Jefferson, NY (11777)

9:37 PM EDT on May 26, 2017 (GMT -0400)
Belle Terre | | Change Station
Active Advisory: Coastal Flood Statement Active Notice: Coastal Flood Statement

Elev 190 ft 40.96 °N, 73.06 °W | Updated 3 minutes ago

Overcast
Overcast
61.7 °F
Feels Like 61.7 °F
N
0.0
Wind Variable Wind from North
Gusts 1.0 mph

Today
High -- | Low -- °F
--% Chance of Precip.
Yesterday
High -- | Low -- °F
Precip. -- in
Pressure 29.70 in
Visibility 10.0 miles
Clouds Few 6000 ft
Mostly Cloudy 7500 ft
Mostly Cloudy 25000 ft
Dew Point 58 °F
Humidity 87%
Rainfall 0.33 in
Snow Depth Not available.
5:25 AM 8:13 PM
New Moon, 2% visible
METAR KISP 270056Z 31010KT 10SM FEW060 BKN075 BKN250 21/12 A2970 RMK AO2 SLP056 T02110122 $
Pressure 29.70 in
Visibility 10.0 miles
Clouds Few 6000 ft
Mostly Cloudy 7500 ft
Mostly Cloudy 25000 ft
Dew Point 58 °F
Humidity 87%
Rainfall 0.33 in
Snow Depth Not available.
5:25 AM 8:13 PM
New Moon, 2% visible
METAR KISP 270056Z 31010KT 10SM FEW060 BKN075 BKN250 21/12 A2970 RMK AO2 SLP056 T02110122 $

Get Your Daily Forecast Email!

Thanks for signing up!

Be on the lookout for a verification email in your inbox.

You'll start receiving severe weather alerts in your inbox..

×

10-Day Weather Forecast

Almanac

Astronomy

May. 26, 2017 Rise Set
Actual Time
Civil Twilight
Nautical Twilight
Astronomical Twilight
Moon
Length of Visible Light
Length of Day
Tomorrow will be .
, % of the Moon is Illuminated

Today's Extremes

State Highs State Lows

Community

WunderPhotos

Category 6

Welcome to Category 6. This is the collective home for Weather Underground's featured writeups by Dr. Jeff Masters (right), Bob Henson (left), Chris Burt, and other regular contributors.

Nearby

Air Quality

  Air Quality AQ Index Pollutant
Not available.

Snow Depth

Station Depth Elevation

Earthquake Activity

City Distance Mag. Time & Date
Minimum magnitude displayed is 2.5.

Coastal Water Temperatures

Place Temperature

Stations

Nearby Weather Stations

Station Location Temp. Windchill Dew Point Humidity Wind Precip. Elev Updated Type
                   

Watches & Warnings

Coastal Flood Statement
Issued: 3:44 PM EDT May. 26, 2017 – National Weather Service

... Localized minor coastal flooding tonight and likely Saturday night...

* locations... low lying coastal areas along western Long Island
Sound

* tidal departures... around 1/2 ft above astronomical tide
tonight and around 1 ft Saturday night.

* Timing... around the times of high tide tonight and Saturday night.

* Impacts... brief minor flooding of the most vulnerable
Waterfront and shoreline roads.